createdAt,value
2023-03-16T00:02:27.176Z,99754.63
2023-03-16T00:04:55.730Z,99754.50
2023-03-16T00:07:24.862Z,99753.47
2023-03-16T00:09:54.883Z,99747.69
2023-03-16T00:12:23.914Z,99753.56
2023-03-16T00:14:54.664Z,99752.72
2023-03-16T00:17:23.162Z,99748.13
2023-03-16T00:19:55.424Z,99759.25
2023-03-16T00:22:24.596Z,99763.66
2023-03-16T00:24:53.466Z,99758.81
2023-03-16T00:27:23.075Z,99762.25
2023-03-16T00:29:56.264Z,99761.47
2023-03-16T00:32:26.689Z,99764.13
2023-03-16T00:34:56.189Z,99776.81
2023-03-16T00:37:25.485Z,99772.75
2023-03-16T00:39:56.694Z,99775.34
2023-03-16T00:42:27.856Z,99767.94
2023-03-16T00:44:58.478Z,99767.25
2023-03-16T00:47:28.603Z,99767.41
2023-03-16T00:49:57.370Z,99769.28
2023-03-16T00:52:27.778Z,99770.34
2023-03-16T00:54:56.738Z,99769.56
2023-03-16T00:57:27.952Z,99777.16
2023-03-16T00:59:59.476Z,99772.38
2023-03-16T01:02:28.464Z,99774.38
2023-03-16T01:04:56.848Z,99778.00
2023-03-16T01:07:27.342Z,99776.38
2023-03-16T01:09:55.873Z,99779.78
2023-03-16T01:12:24.315Z,99783.13
2023-03-16T01:14:52.735Z,99784.19
2023-03-16T01:17:23.333Z,99780.88
2023-03-16T01:19:52.026Z,99786.00
2023-03-16T01:22:21.943Z,99789.47
2023-03-16T01:24:50.454Z,99783.66
2023-03-16T01:27:18.867Z,99789.53
2023-03-16T01:29:47.326Z,99781.94
2023-03-16T01:32:16.014Z,99771.09
2023-03-16T01:34:46.275Z,99776.19
2023-03-16T01:37:15.443Z,99782.03
2023-03-16T01:39:54.924Z,99788.47
2023-03-16T01:42:24.540Z,99789.88
2023-03-16T01:44:55.842Z,99797.22
2023-03-16T01:47:29.257Z,99792.06
2023-03-16T01:49:59.394Z,99792.91
2023-03-16T01:52:34.238Z,99791.16
2023-03-16T01:55:05.434Z,99791.28
2023-03-16T01:57:37.255Z,99797.94
2023-03-16T02:00:11.044Z,99804.59
2023-03-16T02:02:56.469Z,99801.47
2023-03-16T02:05:38.169Z,99804.78
2023-03-16T02:08:08.046Z,99809.09
2023-03-16T02:10:37.449Z,99818.56
2023-03-16T02:13:06.090Z,99815.47
2023-03-16T02:15:36.412Z,99814.66
2023-03-16T02:18:05.954Z,99822.34
2023-03-16T02:20:40.660Z,99829.06
2023-03-16T02:23:18.637Z,99833.34
2023-03-16T02:25:54.790Z,99831.66
2023-03-16T02:28:29.543Z,99839.13
2023-03-16T02:31:00.027Z,99835.81
2023-03-16T02:33:30.374Z,99844.13
2023-03-16T02:35:58.999Z,99844.69
2023-03-16T02:38:27.457Z,99845.66
2023-03-16T02:40:59.476Z,99839.06
2023-03-16T02:43:34.463Z,99848.47
2023-03-16T02:46:12.036Z,99845.19
2023-03-16T02:48:44.411Z,99854.78
2023-03-16T02:51:12.968Z,99853.28
2023-03-16T02:53:41.358Z,99854.88
2023-03-16T02:56:10.267Z,99853.97
2023-03-16T02:58:39.136Z,99856.56
2023-03-16T03:01:15.314Z,99864.06
2023-03-16T03:03:44.024Z,99855.47
2023-03-16T03:06:12.407Z,99870.78
2023-03-16T03:08:42.869Z,99871.63
2023-03-16T03:11:11.818Z,99874.13
2023-03-16T03:13:40.346Z,99871.63
2023-03-16T03:16:16.306Z,99881.78
2023-03-16T03:18:44.895Z,99874.22
2023-03-16T03:21:13.310Z,99884.38
2023-03-16T03:23:42.365Z,99883.59
2023-03-16T03:26:10.748Z,99897.97
2023-03-16T03:28:40.043Z,99905.38
2023-03-16T03:31:08.452Z,99904.34
2023-03-16T03:33:38.402Z,99906.59
2023-03-16T03:36:07.166Z,99901.19
2023-03-16T03:38:38.670Z,99907.50
2023-03-16T03:41:09.015Z,99912.22
2023-03-16T03:43:39.931Z,99920.13
2023-03-16T03:46:14.270Z,99923.22
2023-03-16T03:48:44.351Z,99925.28
2023-03-16T03:51:12.992Z,99922.56
2023-03-16T03:53:47.459Z,99927.38
2023-03-16T03:56:15.855Z,99933.91
2023-03-16T03:58:44.224Z,99939.69
2023-03-16T04:01:16.189Z,99935.31
2023-03-16T04:03:46.391Z,99942.78
2023-03-16T04:06:16.829Z,99943.44
2023-03-16T04:08:45.429Z,99942.47
2023-03-16T04:11:17.486Z,99959.91
2023-03-16T04:13:45.967Z,99957.94
2023-03-16T04:16:17.976Z,99962.56
2023-03-16T04:18:50.509Z,99966.81
2023-03-16T04:21:20.333Z,99963.81
2023-03-16T04:23:49.816Z,99961.84
2023-03-16T04:26:20.148Z,99962.75
2023-03-16T04:28:49.969Z,99973.59
2023-03-16T04:31:21.207Z,99963.53
2023-03-16T04:33:54.924Z,99965.22
2023-03-16T04:36:25.498Z,99962.53
2023-03-16T04:38:55.339Z,99970.91
2023-03-16T04:41:25.589Z,99966.50
2023-03-16T04:44:02.212Z,99969.78
2023-03-16T04:46:30.888Z,99964.63
2023-03-16T04:49:04.399Z,99960.47
2023-03-16T04:51:32.966Z,99969.66
2023-03-16T04:54:08.844Z,99967.78
2023-03-16T04:56:42.420Z,99969.28
2023-03-16T04:59:18.577Z,99962.53
2023-03-16T05:01:53.965Z,99969.88
2023-03-16T05:04:24.939Z,99965.47
2023-03-16T05:06:53.526Z,99972.19
2023-03-16T05:09:27.300Z,99976.13
2023-03-16T05:11:55.797Z,99985.28
2023-03-16T05:14:24.156Z,99991.66
2023-03-16T05:17:04.972Z,99985.78
2023-03-16T05:19:36.147Z,99996.78
2023-03-16T05:22:04.787Z,99999.50
2023-03-16T05:24:33.390Z,100001.22
2023-03-16T05:27:03.848Z,100007.13
2023-03-16T05:29:32.471Z,100004.94
2023-03-16T05:32:01.130Z,100008.69
2023-03-16T05:34:31.944Z,100012.31
2023-03-16T05:37:02.011Z,100017.72
2023-03-16T05:39:31.189Z,100017.00
2023-03-16T05:41:59.698Z,100032.34
2023-03-16T05:44:39.959Z,100036.50
2023-03-16T05:47:16.361Z,100030.84
2023-03-16T05:49:48.702Z,100037.63
2023-03-16T05:52:29.645Z,100034.44
2023-03-16T05:55:01.122Z,100036.53
2023-03-16T05:57:30.107Z,100047.34
2023-03-16T06:00:02.121Z,100049.69
2023-03-16T06:02:41.050Z,100047.53
2023-03-16T06:05:10.592Z,100051.66
2023-03-16T06:07:44.497Z,100055.75
2023-03-16T06:10:14.161Z,100057.72
2023-03-16T06:12:42.710Z,100063.16
2023-03-16T06:15:11.687Z,100065.63
2023-03-16T06:17:41.113Z,100065.63
2023-03-16T06:20:13.163Z,100064.16
2023-03-16T06:22:45.825Z,100071.84
2023-03-16T06:25:15.469Z,100079.19
2023-03-16T06:27:45.917Z,100081.22
2023-03-16T06:30:18.396Z,100085.47
2023-03-16T06:32:46.940Z,100088.19
2023-03-16T06:35:16.343Z,100088.81
2023-03-16T06:38:03.264Z,100084.34
2023-03-16T06:40:53.204Z,100093.97
2023-03-16T06:43:23.102Z,100101.22
2023-03-16T06:45:52.440Z,100102.06
2023-03-16T06:48:22.163Z,100106.75
2023-03-16T06:50:50.785Z,100112.59
2023-03-16T06:53:25.586Z,100112.22
2023-03-16T06:55:55.711Z,100121.25
2023-03-16T06:58:24.386Z,100117.75
2023-03-16T07:00:54.362Z,100118.22
2023-03-16T07:03:22.890Z,100117.94
2023-03-16T07:05:57.381Z,100115.00
2023-03-16T07:08:27.436Z,100125.75
2023-03-16T07:10:56.004Z,100130.28
2023-03-16T07:13:24.436Z,100133.06
2023-03-16T07:15:53.394Z,100132.31
2023-03-16T07:18:26.325Z,100138.31
2023-03-16T07:20:56.039Z,100127.53
2023-03-16T07:23:28.958Z,100135.44
2023-03-16T07:26:04.148Z,100137.75
2023-03-16T07:28:35.296Z,100140.78
2023-03-16T07:31:05.237Z,100143.41
2023-03-16T07:33:40.198Z,100146.28
2023-03-16T07:36:12.612Z,100157.59
2023-03-16T07:38:48.654Z,100158.53
2023-03-16T07:41:17.310Z,100153.50
2023-03-16T07:43:45.624Z,100157.59
2023-03-16T07:46:16.728Z,100151.28
2023-03-16T07:48:46.078Z,100150.88
2023-03-16T07:51:15.692Z,100160.84
2023-03-16T07:53:50.602Z,100158.03
2023-03-16T07:56:31.619Z,100162.91
2023-03-16T07:59:09.369Z,100156.78
2023-03-16T08:01:38.724Z,100155.31
2023-03-16T08:04:07.358Z,100166.13
2023-03-16T08:06:35.739Z,100165.59
2023-03-16T08:09:06.277Z,100169.47
2023-03-16T08:11:38.310Z,100169.44
2023-03-16T08:14:07.579Z,100159.28
2023-03-16T08:16:47.441Z,100161.81
2023-03-16T08:19:18.054Z,100162.72
2023-03-16T08:22:00.769Z,100160.00
2023-03-16T08:24:38.982Z,100169.69
2023-03-16T08:27:09.994Z,100167.28
2023-03-16T08:29:41.455Z,100175.13
2023-03-16T08:32:14.720Z,100173.19
2023-03-16T08:34:46.556Z,100169.63
2023-03-16T08:37:16.665Z,100168.44
2023-03-16T08:39:52.014Z,100176.47
2023-03-16T08:42:21.224Z,100166.41
2023-03-16T08:44:56.487Z,100170.84
2023-03-16T08:47:26.545Z,100172.84
2023-03-16T08:49:56.251Z,100165.47
2023-03-16T08:52:24.591Z,100161.88
2023-03-16T08:55:02.864Z,100162.81
2023-03-16T08:57:33.126Z,100167.22
2023-03-16T09:00:01.650Z,100165.78
2023-03-16T09:02:30.191Z,100168.56
2023-03-16T09:04:59.205Z,100168.72
2023-03-16T09:07:28.435Z,100167.53
2023-03-16T09:09:58.464Z,100171.78
2023-03-16T09:12:27.373Z,100171.25
2023-03-16T09:14:56.498Z,100169.03
2023-03-16T09:17:24.932Z,100170.75
2023-03-16T09:19:56.220Z,100169.47
2023-03-16T09:22:30.332Z,100172.91
2023-03-16T09:25:00.304Z,100178.81
2023-03-16T09:27:28.761Z,100185.13
2023-03-16T09:29:59.625Z,100178.53
2023-03-16T09:32:29.108Z,100183.56
2023-03-16T09:34:57.702Z,100185.38
2023-03-16T09:37:27.784Z,100173.81
2023-03-16T09:40:03.197Z,100179.16
2023-03-16T09:42:39.352Z,100178.56
2023-03-16T09:45:11.004Z,100173.88
2023-03-16T09:47:40.282Z,100179.53
2023-03-16T09:50:11.099Z,100184.75
2023-03-16T09:52:44.978Z,100187.56
2023-03-16T09:55:18.080Z,100185.31
2023-03-16T09:57:48.188Z,100193.78
2023-03-16T10:00:19.528Z,100197.25
2023-03-16T10:02:58.794Z,100204.31
2023-03-16T10:05:28.527Z,100184.78
2023-03-16T10:08:02.300Z,100185.53
2023-03-16T10:10:41.370Z,100183.13
2023-03-16T10:13:18.840Z,100185.00
2023-03-16T10:15:48.657Z,100188.53
2023-03-16T10:18:18.946Z,100196.94
2023-03-16T10:20:48.303Z,100186.84
2023-03-16T10:23:19.018Z,100187.75
2023-03-16T10:25:51.499Z,100180.94
2023-03-16T10:28:22.529Z,100185.19
2023-03-16T10:30:52.129Z,100183.44
2023-03-16T10:33:26.147Z,100186.78
2023-03-16T10:36:00.203Z,100184.94
2023-03-16T10:38:38.857Z,100181.53
2023-03-16T10:41:20.598Z,100183.88
2023-03-16T10:43:52.245Z,100178.66
2023-03-16T10:46:21.341Z,100174.69
2023-03-16T10:48:54.895Z,100178.38
2023-03-16T10:51:26.180Z,100168.28
2023-03-16T10:53:55.144Z,100180.00
2023-03-16T10:56:25.466Z,100114.28
2023-03-16T10:58:56.648Z,100172.38
2023-03-16T11:01:26.995Z,100181.00
2023-03-16T11:03:57.283Z,100175.97
2023-03-16T11:06:30.992Z,100176.75
2023-03-16T11:09:05.906Z,100173.13
2023-03-16T11:11:35.817Z,100168.91
2023-03-16T11:14:06.056Z,100165.53
2023-03-16T11:16:38.503Z,100182.59
2023-03-16T11:19:15.206Z,100184.22
2023-03-16T11:21:49.869Z,100175.75
2023-03-16T11:24:21.248Z,100168.03
2023-03-16T11:26:54.706Z,100181.63
2023-03-16T11:29:28.992Z,100176.38
2023-03-16T11:32:00.174Z,100171.19
2023-03-16T11:34:29.637Z,100176.75
2023-03-16T11:37:02.407Z,100170.00
2023-03-16T11:39:40.862Z,100160.56
2023-03-16T11:42:21.991Z,100169.22
2023-03-16T11:44:57.098Z,100160.78
2023-03-16T11:47:43.377Z,100167.38
2023-03-16T11:50:14.439Z,100147.09
2023-03-16T11:52:47.240Z,100159.06
2023-03-16T11:55:24.934Z,100150.50
2023-03-16T11:57:58.913Z,100163.06
2023-03-16T12:00:33.322Z,100155.56
2023-03-16T12:03:17.717Z,100147.97
2023-03-16T12:05:56.666Z,100148.78
2023-03-16T12:08:36.465Z,100142.13
2023-03-16T12:11:07.941Z,100138.66
2023-03-16T12:13:46.110Z,100140.22
2023-03-16T12:16:20.001Z,100150.50
2023-03-16T12:18:50.530Z,100151.50
2023-03-16T12:21:21.299Z,100138.81
2023-03-16T12:23:52.632Z,100138.81
2023-03-16T12:26:22.444Z,100140.53
2023-03-16T12:28:52.061Z,100137.91
2023-03-16T12:31:24.033Z,100141.28
2023-03-16T12:33:59.688Z,100141.16
2023-03-16T12:36:39.049Z,100140.25
2023-03-16T12:39:09.435Z,100129.22
2023-03-16T12:41:42.670Z,100131.75
2023-03-16T12:44:17.587Z,100136.03
2023-03-16T12:46:57.882Z,100131.91
2023-03-16T12:49:29.014Z,100131.97
2023-03-16T12:52:01.000Z,100138.94
2023-03-16T12:54:29.995Z,100135.50
2023-03-16T12:57:02.150Z,100133.75
2023-03-16T12:59:39.175Z,100133.66
2023-03-16T13:02:13.203Z,100134.38
2023-03-16T13:04:44.608Z,100126.69
2023-03-16T13:07:18.939Z,100136.09
2023-03-16T13:09:51.049Z,100131.03
2023-03-16T13:12:31.162Z,100138.72
2023-03-16T13:14:59.885Z,100130.13
2023-03-16T13:17:31.424Z,100135.31
2023-03-16T13:20:06.967Z,100131.03
2023-03-16T13:22:46.761Z,100128.56
2023-03-16T13:25:18.248Z,100132.00
2023-03-16T13:27:49.526Z,100118.34
2023-03-16T13:30:19.679Z,100123.50
2023-03-16T13:32:49.677Z,100128.56
2023-03-16T13:35:19.619Z,100131.09
2023-03-16T13:37:48.452Z,100130.25
2023-03-16T13:40:19.681Z,100134.53
2023-03-16T13:42:49.943Z,100125.09
2023-03-16T13:45:21.561Z,100121.72
2023-03-16T13:47:51.914Z,100123.47
2023-03-16T13:50:20.899Z,100117.56
2023-03-16T13:52:56.960Z,100122.69
2023-03-16T13:55:28.849Z,100126.97
2023-03-16T13:57:57.570Z,100117.56
2023-03-16T14:00:28.236Z,100123.53
2023-03-16T14:02:59.444Z,100138.06
2023-03-16T14:05:29.652Z,100130.34
2023-03-16T14:08:01.195Z,100137.19
2023-03-16T14:10:33.607Z,100135.44
2023-03-16T14:13:09.369Z,100126.88
2023-03-16T14:15:38.840Z,100121.75
2023-03-16T14:18:14.428Z,100120.03
2023-03-16T14:20:42.957Z,100118.31
2023-03-16T14:23:19.650Z,100123.44
2023-03-16T14:25:49.265Z,100118.34
2023-03-16T14:28:18.853Z,100119.19
2023-03-16T14:30:53.841Z,100120.09
2023-03-16T14:33:31.177Z,100126.97
2023-03-16T14:36:00.897Z,100116.66
2023-03-16T14:38:32.271Z,100124.22
2023-03-16T14:41:04.806Z,100121.59
2023-03-16T14:43:34.298Z,100117.38
2023-03-16T14:46:05.780Z,100122.53
2023-03-16T14:48:36.690Z,100121.69
2023-03-16T14:51:06.664Z,100126.78
2023-03-16T14:53:35.032Z,100127.66
2023-03-16T14:56:03.988Z,100127.66
2023-03-16T14:58:34.494Z,100133.63
2023-03-16T15:01:04.300Z,100128.50
2023-03-16T15:03:35.795Z,100143.84
2023-03-16T15:06:06.057Z,100140.47
2023-03-16T15:08:43.669Z,100130.22
2023-03-16T15:11:12.241Z,100134.44
2023-03-16T15:14:04.529Z,100138.66
2023-03-16T15:16:34.799Z,100133.50
2023-03-16T15:19:03.474Z,100143.72
2023-03-16T15:21:33.301Z,100144.53
2023-03-16T15:24:01.720Z,100143.66
2023-03-16T15:26:31.009Z,100151.22
2023-03-16T15:28:59.770Z,100148.53
2023-03-16T15:31:28.260Z,100155.25
2023-03-16T15:33:56.813Z,100162.00
2023-03-16T15:36:25.325Z,100155.06
2023-03-16T15:38:57.066Z,100160.88
2023-03-16T15:41:30.141Z,100162.53
2023-03-16T15:44:01.094Z,100161.59
2023-03-16T15:46:29.632Z,100158.06
2023-03-16T15:48:58.424Z,100161.34
2023-03-16T15:51:29.139Z,100157.06
2023-03-16T15:54:01.258Z,100160.41
2023-03-16T15:56:32.341Z,100162.81
2023-03-16T15:59:04.007Z,100162.72
2023-03-16T16:01:38.193Z,100164.31
2023-03-16T16:04:09.569Z,100161.66
2023-03-16T16:06:38.005Z,100167.53
2023-03-16T16:09:08.095Z,100159.00
2023-03-16T16:11:37.645Z,100160.63
2023-03-16T16:14:06.477Z,100159.72
2023-03-16T16:16:35.537Z,100167.28
2023-03-16T16:19:04.052Z,100165.50
2023-03-16T16:21:33.791Z,100169.63
2023-03-16T16:24:03.276Z,100172.97
2023-03-16T16:26:54.718Z,100174.53
2023-03-16T16:29:25.042Z,100179.56
2023-03-16T16:31:53.788Z,100169.25
2023-03-16T16:34:24.979Z,100175.94
2023-03-16T16:36:54.444Z,100174.16
2023-03-16T16:39:23.237Z,100180.84
2023-03-16T16:41:56.905Z,100176.47
2023-03-16T16:44:27.629Z,100181.41
2023-03-16T16:46:56.508Z,100181.28
2023-03-16T16:49:26.207Z,100190.44
2023-03-16T16:51:55.578Z,100201.34
2023-03-16T16:54:25.732Z,100199.50
2023-03-16T16:56:56.409Z,100192.63
2023-03-16T16:59:26.412Z,100201.03
2023-03-16T17:01:55.506Z,100199.13
2023-03-16T17:04:25.620Z,100188.03
2023-03-16T17:06:55.822Z,100190.53
2023-03-16T17:09:25.054Z,100190.38
2023-03-16T17:11:56.302Z,100197.84
2023-03-16T17:14:28.563Z,100205.38
2023-03-16T17:16:57.365Z,100218.78
2023-03-16T17:19:27.691Z,100216.94
2023-03-16T17:21:57.478Z,100216.00
2023-03-16T17:24:26.462Z,100219.31
2023-03-16T17:26:56.613Z,100231.91
2023-03-16T17:29:29.156Z,100234.22
2023-03-16T17:31:57.630Z,100238.22
2023-03-16T17:34:27.471Z,100232.97
2023-03-16T17:36:56.643Z,100231.94
2023-03-16T17:39:26.389Z,100235.22
2023-03-16T17:41:56.678Z,100234.31
2023-03-16T17:44:27.028Z,100235.81
2023-03-16T17:46:55.698Z,100239.03
2023-03-16T17:49:28.768Z,100238.91
2023-03-16T17:51:57.558Z,100241.16
2023-03-16T17:54:26.275Z,100248.53
2023-03-16T17:56:55.084Z,100254.97
2023-03-16T17:59:24.174Z,100252.09
2023-03-16T18:01:55.004Z,100260.31
2023-03-16T18:04:24.965Z,100261.81
2023-03-16T18:06:54.406Z,100269.19
2023-03-16T18:09:22.841Z,100275.53
2023-03-16T18:11:52.847Z,100272.81
2023-03-16T18:14:26.575Z,100275.19
2023-03-16T18:16:56.537Z,100288.59
2023-03-16T18:19:26.393Z,100283.16
2023-03-16T18:21:54.912Z,100283.00
2023-03-16T18:24:26.968Z,100297.84
2023-03-16T18:26:55.521Z,100290.09
2023-03-16T18:29:24.181Z,100294.00
2023-03-16T18:31:55.626Z,100287.72
2023-03-16T18:34:27.610Z,100290.56
2023-03-16T18:37:00.054Z,100295.38
2023-03-16T18:39:28.661Z,100302.47
2023-03-16T18:41:57.103Z,100301.34
2023-03-16T18:44:26.573Z,100302.81
2023-03-16T18:46:58.481Z,100304.19
2023-03-16T18:49:31.068Z,100302.84
2023-03-16T18:51:59.480Z,100300.84
2023-03-16T18:54:30.891Z,100296.50
2023-03-16T18:56:59.940Z,100300.81
2023-03-16T18:59:28.530Z,100304.25
2023-03-16T19:01:58.366Z,100305.84
2023-03-16T19:04:27.938Z,100308.19
2023-03-16T19:06:58.129Z,100315.97
2023-03-16T19:09:28.126Z,100313.91
2023-03-16T19:11:56.639Z,100317.88
2023-03-16T19:14:27.317Z,100321.19
2023-03-16T19:16:56.473Z,100325.34
2023-03-16T19:19:25.124Z,100325.56
2023-03-16T19:21:54.859Z,100324.59
2023-03-16T19:24:26.785Z,100327.41
2023-03-16T19:26:56.198Z,100334.31
2023-03-16T19:29:29.242Z,100330.50
2023-03-16T19:31:58.018Z,100328.34
2023-03-16T19:34:26.693Z,100338.28
2023-03-16T19:36:56.542Z,100336.56
2023-03-16T19:39:27.200Z,100343.22
2023-03-16T19:41:56.919Z,100342.31
2023-03-16T19:44:26.802Z,100337.00
2023-03-16T19:46:55.796Z,100341.94
2023-03-16T19:49:26.225Z,100344.22
2023-03-16T19:51:55.945Z,100349.66
2023-03-16T19:54:25.268Z,100350.25
2023-03-16T19:56:56.461Z,100357.63
2023-03-16T19:59:28.065Z,100358.50
2023-03-16T20:01:56.496Z,100356.91
2023-03-16T20:04:26.137Z,100371.31
2023-03-16T20:06:55.001Z,100356.75
2023-03-16T20:09:23.529Z,100361.50
2023-03-16T20:11:52.654Z,100366.44
2023-03-16T20:14:25.035Z,100370.19
2023-03-16T20:16:53.782Z,100376.63
2023-03-16T20:19:23.480Z,100378.22
2023-03-16T20:21:52.294Z,100367.44
2023-03-16T20:24:22.375Z,100373.06
2023-03-16T20:26:51.617Z,100374.13
2023-03-16T20:29:23.397Z,100379.69
2023-03-16T20:31:53.663Z,100386.97
2023-03-16T20:34:24.866Z,100383.66
2023-03-16T20:36:53.348Z,100386.06
2023-03-16T20:39:21.918Z,100391.63
2023-03-16T20:41:50.619Z,100392.94
2023-03-16T20:44:20.433Z,100379.16
2023-03-16T20:46:49.234Z,100383.66
2023-03-16T20:49:28.885Z,100385.00
2023-03-16T20:51:58.771Z,100386.81
2023-03-16T20:54:27.355Z,100385.63
2023-03-16T20:56:55.832Z,100380.81
2023-03-16T20:59:26.759Z,100384.00
2023-03-16T21:01:56.408Z,100383.72
2023-03-16T21:04:27.531Z,100383.81
2023-03-16T21:06:57.069Z,100388.31
2023-03-16T21:09:28.094Z,100394.56
2023-03-16T21:11:56.622Z,100386.03
2023-03-16T21:14:25.346Z,100387.25
2023-03-16T21:16:54.717Z,100382.06
2023-03-16T21:19:24.204Z,100377.19
2023-03-16T21:21:53.231Z,100369.13
2023-03-16T21:24:22.035Z,100370.84
2023-03-16T21:26:52.438Z,100371.44
2023-03-16T21:29:22.068Z,100363.97
2023-03-16T21:31:50.657Z,100358.78
2023-03-16T21:34:23.940Z,100362.47
2023-03-16T21:36:52.519Z,100375.97
2023-03-16T21:39:22.650Z,100370.41
2023-03-16T21:41:52.623Z,100369.13
2023-03-16T21:44:21.060Z,100379.47
2023-03-16T21:46:49.804Z,100368.09
2023-03-16T21:49:18.341Z,100374.16
2023-03-16T21:51:46.761Z,100379.03
2023-03-16T21:54:16.120Z,100382.28
2023-03-16T21:56:44.838Z,100384.50
2023-03-16T21:59:14.942Z,100379.03
2023-03-16T22:01:58.662Z,100384.06
2023-03-16T22:04:29.849Z,100380.38
2023-03-16T22:06:58.252Z,100393.72
2023-03-16T22:09:30.656Z,100396.44
2023-03-16T22:11:59.074Z,100398.03
2023-03-16T22:14:28.888Z,100390.63
2023-03-16T22:16:57.999Z,100394.59
2023-03-16T22:19:28.686Z,100398.59
2023-03-16T22:21:57.835Z,100397.88
2023-03-16T22:24:27.538Z,100395.31
2023-03-16T22:26:56.805Z,100398.00
2023-03-16T22:29:26.702Z,100386.81
2023-03-16T22:31:58.188Z,100389.53
2023-03-16T22:34:29.165Z,100393.84
2023-03-16T22:36:58.132Z,100395.44
2023-03-16T22:39:26.502Z,100383.94
2023-03-16T22:41:54.991Z,100390.75
2023-03-16T22:44:23.995Z,100386.59
2023-03-16T22:46:52.463Z,100380.69
2023-03-16T22:49:24.288Z,100380.91
2023-03-16T22:51:54.124Z,100373.31
2023-03-16T22:54:24.257Z,100376.31
2023-03-16T22:56:52.965Z,100377.75
2023-03-16T22:59:23.422Z,100376.22
2023-03-16T23:01:51.954Z,100380.34
2023-03-16T23:04:21.395Z,100382.06
2023-03-16T23:06:54.608Z,100376.03
2023-03-16T23:09:23.515Z,100380.19
2023-03-16T23:11:54.113Z,100386.94
2023-03-16T23:14:24.260Z,100387.88
2023-03-16T23:16:52.766Z,100382.22
2023-03-16T23:19:24.752Z,100392.03
2023-03-16T23:21:56.958Z,100386.22
2023-03-16T23:24:25.786Z,100386.28
2023-03-16T23:26:55.060Z,100382.47
2023-03-16T23:29:24.550Z,100388.22
2023-03-16T23:31:54.311Z,100393.38
2023-03-16T23:34:23.827Z,100391.69
2023-03-16T23:36:52.856Z,100391.69
2023-03-16T23:39:23.565Z,100390.81
2023-03-16T23:41:52.447Z,100398.41
2023-03-16T23:44:22.796Z,100391.69
2023-03-16T23:46:51.572Z,100398.41
2023-03-16T23:49:22.306Z,100398.13
2023-03-16T23:51:51.137Z,100387.78
2023-03-16T23:54:21.248Z,100389.50
2023-03-16T23:56:51.626Z,100379.47
2023-03-16T23:59:21.134Z,100398.47
